sensor_id;sensor_type;location;lat;lon;timestamp;P1;durP1;ratioP1;P2;durP2;ratioP2
55465;SDS011;41329;41.594;23.810;2022-12-29T00:00:02;142.03;;;84.07;;
55465;SDS011;41329;41.594;23.810;2022-12-29T00:02:31;145.77;;;87.57;;
55465;SDS011;41329;41.594;23.810;2022-12-29T00:04:57;150.77;;;87.97;;
55465;SDS011;41329;41.594;23.810;2022-12-29T00:07:22;146.20;;;83.43;;
55465;SDS011;41329;41.594;23.810;2022-12-29T00:09:48;161.27;;;92.90;;
55465;SDS011;41329;41.594;23.810;2022-12-29T00:12:13;156.73;;;93.07;;
55465;SDS011;41329;41.594;23.810;2022-12-29T00:14:38;188.67;;;112.50;;
55465;SDS011;41329;41.594;23.810;2022-12-29T00:17:23;177.37;;;105.87;;
55465;SDS011;41329;41.594;23.810;2022-12-29T00:19:48;173.37;;;102.33;;
55465;SDS011;41329;41.594;23.810;2022-12-29T00:22:32;165.73;;;98.77;;
55465;SDS011;41329;41.594;23.810;2022-12-29T00:25:16;165.17;;;96.53;;
55465;SDS011;41329;41.594;23.810;2022-12-29T00:28:00;157.93;;;93.60;;
55465;SDS011;41329;41.594;23.810;2022-12-29T00:30:44;159.03;;;93.60;;
55465;SDS011;41329;41.594;23.810;2022-12-29T00:33:28;148.77;;;86.90;;
55465;SDS011;41329;41.594;23.810;2022-12-29T00:36:25;148.40;;;86.10;;
55465;SDS011;41329;41.594;23.810;2022-12-29T00:38:58;144.33;;;84.37;;
55465;SDS011;41329;41.594;23.810;2022-12-29T00:41:44;142.57;;;84.63;;
55465;SDS011;41329;41.594;23.810;2022-12-29T00:44:28;162.70;;;92.17;;
55465;SDS011;41329;41.594;23.810;2022-12-29T00:46:53;154.77;;;90.80;;
55465;SDS011;41329;41.594;23.810;2022-12-29T00:49:18;162.53;;;90.73;;
55465;SDS011;41329;41.594;23.810;2022-12-29T00:52:14;140.97;;;85.27;;
55465;SDS011;41329;41.594;23.810;2022-12-29T00:54:40;153.20;;;88.20;;
55465;SDS011;41329;41.594;23.810;2022-12-29T00:57:08;151.20;;;88.43;;
55465;SDS011;41329;41.594;23.810;2022-12-29T00:59:35;147.60;;;88.07;;
55465;SDS011;41329;41.594;23.810;2022-12-29T01:02:01;140.93;;;83.73;;
55465;SDS011;41329;41.594;23.810;2022-12-29T01:04:27;133.50;;;77.17;;
55465;SDS011;41329;41.594;23.810;2022-12-29T01:06:52;122.50;;;71.57;;
55465;SDS011;41329;41.594;23.810;2022-12-29T01:09:18;122.37;;;74.27;;
55465;SDS011;41329;41.594;23.810;2022-12-29T01:12:03;122.80;;;72.93;;
55465;SDS011;41329;41.594;23.810;2022-12-29T01:14:30;125.43;;;73.30;;
55465;SDS011;41329;41.594;23.810;2022-12-29T01:16:55;123.40;;;71.43;;
55465;SDS011;41329;41.594;23.810;2022-12-29T01:19:21;113.50;;;68.77;;
55465;SDS011;41329;41.594;23.810;2022-12-29T01:21:47;114.37;;;67.63;;
55465;SDS011;41329;41.594;23.810;2022-12-29T01:24:13;115.53;;;70.07;;
55465;SDS011;41329;41.594;23.810;2022-12-29T01:26:39;123.80;;;73.73;;
55465;SDS011;41329;41.594;23.810;2022-12-29T01:29:05;120.33;;;73.33;;
55465;SDS011;41329;41.594;23.810;2022-12-29T01:31:30;136.10;;;83.37;;
55465;SDS011;41329;41.594;23.810;2022-12-29T01:33:56;146.87;;;87.07;;
55465;SDS011;41329;41.594;23.810;2022-12-29T01:36:21;141.67;;;87.87;;
55465;SDS011;41329;41.594;23.810;2022-12-29T01:38:47;149.87;;;89.40;;
55465;SDS011;41329;41.594;23.810;2022-12-29T01:41:13;143.77;;;86.03;;
55465;SDS011;41329;41.594;23.810;2022-12-29T01:43:53;147.40;;;84.93;;
55465;SDS011;41329;41.594;23.810;2022-12-29T01:48:50;148.07;;;88.10;;
55465;SDS011;41329;41.594;23.810;2022-12-29T01:51:19;150.90;;;88.82;;
55465;SDS011;41329;41.594;23.810;2022-12-29T01:53:48;138.70;;;86.20;;
55465;SDS011;41329;41.594;23.810;2022-12-29T01:56:15;154.53;;;89.93;;
55465;SDS011;41329;41.594;23.810;2022-12-29T01:58:43;179.93;;;104.30;;
55465;SDS011;41329;41.594;23.810;2022-12-29T02:01:11;171.37;;;101.07;;
55465;SDS011;41329;41.594;23.810;2022-12-29T02:03:37;191.47;;;107.20;;
55465;SDS011;41329;41.594;23.810;2022-12-29T02:06:16;188.57;;;108.57;;
55465;SDS011;41329;41.594;23.810;2022-12-29T02:08:46;194.00;;;107.83;;
55465;SDS011;41329;41.594;23.810;2022-12-29T02:11:12;188.60;;;109.23;;
55465;SDS011;41329;41.594;23.810;2022-12-29T02:13:38;189.50;;;107.80;;
55465;SDS011;41329;41.594;23.810;2022-12-29T02:16:21;181.40;;;107.43;;
55465;SDS011;41329;41.594;23.810;2022-12-29T02:35:31;106.72;;;64.97;;
55465;SDS011;41329;41.594;23.810;2022-12-29T02:40:52;121.33;;;71.63;;
55465;SDS011;41329;41.594;23.810;2022-12-29T02:43:42;120.63;;;72.60;;
55465;SDS011;41329;41.594;23.810;2022-12-29T02:49:10;134.33;;;79.40;;
55465;SDS011;41329;41.594;23.810;2022-12-29T02:51:43;133.57;;;78.73;;
55465;SDS011;41329;41.594;23.810;2022-12-29T02:54:16;128.23;;;78.40;;
55465;SDS011;41329;41.594;23.810;2022-12-29T02:57:02;134.83;;;79.70;;
55465;SDS011;41329;41.594;23.810;2022-12-29T02:59:27;149.03;;;87.17;;
55465;SDS011;41329;41.594;23.810;2022-12-29T03:13:39;137.83;;;78.77;;
55465;SDS011;41329;41.594;23.810;2022-12-29T03:19:07;142.30;;;79.33;;
55465;SDS011;41329;41.594;23.810;2022-12-29T03:21:54;140.07;;;80.73;;
55465;SDS011;41329;41.594;23.810;2022-12-29T03:24:40;133.27;;;77.25;;
55465;SDS011;41329;41.594;23.810;2022-12-29T03:27:14;128.10;;;75.10;;
55465;SDS011;41329;41.594;23.810;2022-12-29T03:29:47;110.13;;;67.53;;
55465;SDS011;41329;41.594;23.810;2022-12-29T03:32:20;115.90;;;65.80;;
55465;SDS011;41329;41.594;23.810;2022-12-29T03:34:48;104.40;;;62.10;;
55465;SDS011;41329;41.594;23.810;2022-12-29T03:37:16;105.57;;;61.30;;
55465;SDS011;41329;41.594;23.810;2022-12-29T03:39:46;113.53;;;64.70;;
55465;SDS011;41329;41.594;23.810;2022-12-29T03:42:15;110.13;;;64.60;;
55465;SDS011;41329;41.594;23.810;2022-12-29T03:44:44;115.43;;;68.20;;
55465;SDS011;41329;41.594;23.810;2022-12-29T03:47:11;122.13;;;70.23;;
55465;SDS011;41329;41.594;23.810;2022-12-29T03:49:38;113.07;;;66.20;;
55465;SDS011;41329;41.594;23.810;2022-12-29T03:52:04;120.23;;;71.23;;
55465;SDS011;41329;41.594;23.810;2022-12-29T03:54:30;98.20;;;59.57;;
55465;SDS011;41329;41.594;23.810;2022-12-29T03:56:56;92.30;;;54.40;;
55465;SDS011;41329;41.594;23.810;2022-12-29T03:59:22;81.37;;;51.47;;
55465;SDS011;41329;41.594;23.810;2022-12-29T04:01:48;89.73;;;55.23;;
55465;SDS011;41329;41.594;23.810;2022-12-29T04:04:13;97.90;;;55.53;;
55465;SDS011;41329;41.594;23.810;2022-12-29T04:06:39;93.13;;;53.50;;
55465;SDS011;41329;41.594;23.810;2022-12-29T04:09:04;88.60;;;52.40;;
55465;SDS011;41329;41.594;23.810;2022-12-29T04:11:30;109.73;;;63.67;;
55465;SDS011;41329;41.594;23.810;2022-12-29T04:13:56;110.47;;;65.00;;
55465;SDS011;41329;41.594;23.810;2022-12-29T04:16:21;131.07;;;79.30;;
55465;SDS011;41329;41.594;23.810;2022-12-29T04:18:47;127.77;;;75.30;;
55465;SDS011;41329;41.594;23.810;2022-12-29T04:21:12;123.47;;;72.03;;
55465;SDS011;41329;41.594;23.810;2022-12-29T04:23:38;98.90;;;56.77;;
55465;SDS011;41329;41.594;23.810;2022-12-29T04:26:03;85.07;;;53.77;;
55465;SDS011;41329;41.594;23.810;2022-12-29T04:28:32;74.17;;;48.93;;
55465;SDS011;41329;41.594;23.810;2022-12-29T04:30:57;70.50;;;45.33;;
55465;SDS011;41329;41.594;23.810;2022-12-29T04:33:23;96.30;;;57.13;;
55465;SDS011;41329;41.594;23.810;2022-12-29T04:35:49;100.23;;;60.63;;
55465;SDS011;41329;41.594;23.810;2022-12-29T04:38:15;97.80;;;56.77;;
55465;SDS011;41329;41.594;23.810;2022-12-29T04:40:41;99.37;;;60.03;;
55465;SDS011;41329;41.594;23.810;2022-12-29T04:43:08;99.67;;;61.97;;
55465;SDS011;41329;41.594;23.810;2022-12-29T04:45:35;103.60;;;61.90;;
55465;SDS011;41329;41.594;23.810;2022-12-29T04:48:00;104.03;;;60.07;;
55465;SDS011;41329;41.594;23.810;2022-12-29T04:50:26;102.17;;;60.20;;
55465;SDS011;41329;41.594;23.810;2022-12-29T04:52:51;100.50;;;58.37;;
55465;SDS011;41329;41.594;23.810;2022-12-29T04:55:17;86.93;;;53.37;;
55465;SDS011;41329;41.594;23.810;2022-12-29T04:57:42;83.20;;;51.30;;
55465;SDS011;41329;41.594;23.810;2022-12-29T05:00:08;118.27;;;71.47;;
55465;SDS011;41329;41.594;23.810;2022-12-29T05:02:35;121.53;;;73.13;;
55465;SDS011;41329;41.594;23.810;2022-12-29T05:05:01;110.83;;;65.47;;
55465;SDS011;41329;41.594;23.810;2022-12-29T05:07:26;105.87;;;61.23;;
55465;SDS011;41329;41.594;23.810;2022-12-29T05:09:52;110.20;;;63.67;;
55465;SDS011;41329;41.594;23.810;2022-12-29T05:12:17;103.73;;;60.77;;
55465;SDS011;41329;41.594;23.810;2022-12-29T05:14:43;107.70;;;63.10;;
55465;SDS011;41329;41.594;23.810;2022-12-29T05:20:30;109.10;;;64.17;;
55465;SDS011;41329;41.594;23.810;2022-12-29T05:22:55;119.27;;;69.53;;
55465;SDS011;41329;41.594;23.810;2022-12-29T05:25:20;112.63;;;66.90;;
55465;SDS011;41329;41.594;23.810;2022-12-29T05:27:46;113.20;;;63.27;;
55465;SDS011;41329;41.594;23.810;2022-12-29T05:30:11;119.17;;;70.73;;
55465;SDS011;41329;41.594;23.810;2022-12-29T05:32:37;118.20;;;71.13;;
55465;SDS011;41329;41.594;23.810;2022-12-29T05:35:03;113.47;;;67.60;;
55465;SDS011;41329;41.594;23.810;2022-12-29T05:37:28;106.03;;;64.77;;
55465;SDS011;41329;41.594;23.810;2022-12-29T05:39:54;106.63;;;62.53;;
55465;SDS011;41329;41.594;23.810;2022-12-29T05:42:19;102.17;;;60.73;;
55465;SDS011;41329;41.594;23.810;2022-12-29T05:44:45;121.37;;;68.87;;
55465;SDS011;41329;41.594;23.810;2022-12-29T05:47:10;203.73;;;103.00;;
55465;SDS011;41329;41.594;23.810;2022-12-29T05:49:36;185.17;;;101.20;;
55465;SDS011;41329;41.594;23.810;2022-12-29T05:55:10;133.00;;;75.63;;
55465;SDS011;41329;41.594;23.810;2022-12-29T05:57:36;133.57;;;76.20;;
55465;SDS011;41329;41.594;23.810;2022-12-29T06:00:02;132.10;;;74.67;;
55465;SDS011;41329;41.594;23.810;2022-12-29T06:02:29;149.23;;;84.57;;
55465;SDS011;41329;41.594;23.810;2022-12-29T06:04:54;154.77;;;89.23;;
55465;SDS011;41329;41.594;23.810;2022-12-29T06:07:19;148.23;;;84.10;;
55465;SDS011;41329;41.594;23.810;2022-12-29T06:09:45;128.23;;;79.90;;
55465;SDS011;41329;41.594;23.810;2022-12-29T06:12:10;117.70;;;73.97;;
55465;SDS011;41329;41.594;23.810;2022-12-29T06:14:36;125.40;;;75.67;;
55465;SDS011;41329;41.594;23.810;2022-12-29T06:17:01;112.70;;;64.47;;
55465;SDS011;41329;41.594;23.810;2022-12-29T06:19:27;106.47;;;62.77;;
55465;SDS011;41329;41.594;23.810;2022-12-29T06:21:53;113.60;;;67.07;;
55465;SDS011;41329;41.594;23.810;2022-12-29T06:24:19;106.43;;;63.20;;
55465;SDS011;41329;41.594;23.810;2022-12-29T06:26:44;100.20;;;60.80;;
55465;SDS011;41329;41.594;23.810;2022-12-29T06:29:10;107.43;;;69.23;;
55465;SDS011;41329;41.594;23.810;2022-12-29T06:31:36;117.50;;;71.53;;
55465;SDS011;41329;41.594;23.810;2022-12-29T06:34:01;108.00;;;68.77;;
55465;SDS011;41329;41.594;23.810;2022-12-29T06:36:27;96.33;;;59.07;;
55465;SDS011;41329;41.594;23.810;2022-12-29T06:38:53;84.87;;;53.13;;
55465;SDS011;41329;41.594;23.810;2022-12-29T06:41:19;80.07;;;50.17;;
55465;SDS011;41329;41.594;23.810;2022-12-29T06:43:46;84.57;;;52.37;;
55465;SDS011;41329;41.594;23.810;2022-12-29T06:46:11;91.87;;;56.13;;
55465;SDS011;41329;41.594;23.810;2022-12-29T06:48:37;105.33;;;65.83;;
55465;SDS011;41329;41.594;23.810;2022-12-29T06:51:02;140.60;;;79.87;;
55465;SDS011;41329;41.594;23.810;2022-12-29T06:53:28;151.03;;;87.23;;
55465;SDS011;41329;41.594;23.810;2022-12-29T06:55:53;130.80;;;76.43;;
55465;SDS011;41329;41.594;23.810;2022-12-29T06:58:19;130.90;;;77.60;;
55465;SDS011;41329;41.594;23.810;2022-12-29T07:00:44;146.73;;;86.70;;
55465;SDS011;41329;41.594;23.810;2022-12-29T07:03:10;154.30;;;86.20;;
55465;SDS011;41329;41.594;23.810;2022-12-29T07:05:35;152.63;;;86.37;;
55465;SDS011;41329;41.594;23.810;2022-12-29T07:08:01;160.53;;;86.30;;
55465;SDS011;41329;41.594;23.810;2022-12-29T07:10:26;152.53;;;86.40;;
55465;SDS011;41329;41.594;23.810;2022-12-29T07:12:52;156.47;;;86.80;;
55465;SDS011;41329;41.594;23.810;2022-12-29T07:15:18;159.27;;;88.70;;
55465;SDS011;41329;41.594;23.810;2022-12-29T07:17:43;163.07;;;87.83;;
55465;SDS011;41329;41.594;23.810;2022-12-29T07:20:09;306.93;;;107.87;;
55465;SDS011;41329;41.594;23.810;2022-12-29T07:22:35;205.83;;;99.13;;
55465;SDS011;41329;41.594;23.810;2022-12-29T07:25:00;222.13;;;103.60;;
55465;SDS011;41329;41.594;23.810;2022-12-29T07:27:26;341.27;;;121.10;;
55465;SDS011;41329;41.594;23.810;2022-12-29T07:29:52;265.70;;;116.03;;
55465;SDS011;41329;41.594;23.810;2022-12-29T07:32:17;237.50;;;105.07;;
55465;SDS011;41329;41.594;23.810;2022-12-29T07:34:43;187.97;;;91.17;;
55465;SDS011;41329;41.594;23.810;2022-12-29T07:37:10;225.33;;;97.27;;
55465;SDS011;41329;41.594;23.810;2022-12-29T07:39:35;183.80;;;94.97;;
55465;SDS011;41329;41.594;23.810;2022-12-29T07:42:01;309.40;;;107.87;;
55465;SDS011;41329;41.594;23.810;2022-12-29T07:44:26;364.43;;;108.13;;
55465;SDS011;41329;41.594;23.810;2022-12-29T07:46:52;176.50;;;90.77;;
55465;SDS011;41329;41.594;23.810;2022-12-29T07:49:17;186.90;;;86.13;;
55465;SDS011;41329;41.594;23.810;2022-12-29T07:51:43;207.23;;;84.87;;
55465;SDS011;41329;41.594;23.810;2022-12-29T07:54:08;181.33;;;85.47;;
55465;SDS011;41329;41.594;23.810;2022-12-29T07:56:34;144.30;;;85.93;;
55465;SDS011;41329;41.594;23.810;2022-12-29T07:58:59;162.17;;;87.87;;
55465;SDS011;41329;41.594;23.810;2022-12-29T08:01:25;256.97;;;119.07;;
55465;SDS011;41329;41.594;23.810;2022-12-29T08:03:50;163.60;;;94.43;;
55465;SDS011;41329;41.594;23.810;2022-12-29T08:06:16;160.87;;;94.67;;
55465;SDS011;41329;41.594;23.810;2022-12-29T08:08:41;210.90;;;105.03;;
55465;SDS011;41329;41.594;23.810;2022-12-29T08:11:06;262.87;;;109.90;;
55465;SDS011;41329;41.594;23.810;2022-12-29T08:13:32;296.77;;;128.73;;
55465;SDS011;41329;41.594;23.810;2022-12-29T08:15:58;262.60;;;115.10;;
55465;SDS011;41329;41.594;23.810;2022-12-29T08:18:23;278.50;;;120.53;;
55465;SDS011;41329;41.594;23.810;2022-12-29T08:20:49;266.00;;;125.90;;
55465;SDS011;41329;41.594;23.810;2022-12-29T08:23:15;325.57;;;145.37;;
55465;SDS011;41329;41.594;23.810;2022-12-29T08:25:40;239.57;;;120.13;;
55465;SDS011;41329;41.594;23.810;2022-12-29T08:28:06;292.23;;;129.77;;
55465;SDS011;41329;41.594;23.810;2022-12-29T08:30:31;244.03;;;127.73;;
55465;SDS011;41329;41.594;23.810;2022-12-29T08:32:57;256.60;;;135.00;;
55465;SDS011;41329;41.594;23.810;2022-12-29T08:35:22;256.70;;;137.63;;
55465;SDS011;41329;41.594;23.810;2022-12-29T08:37:48;304.17;;;149.47;;
55465;SDS011;41329;41.594;23.810;2022-12-29T08:40:13;315.23;;;157.87;;
55465;SDS011;41329;41.594;23.810;2022-12-29T08:42:39;333.27;;;164.23;;
55465;SDS011;41329;41.594;23.810;2022-12-29T08:45:05;265.93;;;139.10;;
55465;SDS011;41329;41.594;23.810;2022-12-29T08:47:31;282.30;;;126.03;;
55465;SDS011;41329;41.594;23.810;2022-12-29T08:49:56;197.47;;;102.47;;
55465;SDS011;41329;41.594;23.810;2022-12-29T08:52:22;157.23;;;91.30;;
55465;SDS011;41329;41.594;23.810;2022-12-29T08:54:48;144.13;;;80.93;;
55465;SDS011;41329;41.594;23.810;2022-12-29T08:57:13;127.90;;;75.57;;
55465;SDS011;41329;41.594;23.810;2022-12-29T08:59:39;118.33;;;70.43;;
55465;SDS011;41329;41.594;23.810;2022-12-29T09:02:05;120.67;;;70.40;;
55465;SDS011;41329;41.594;23.810;2022-12-29T09:04:30;116.87;;;67.73;;
55465;SDS011;41329;41.594;23.810;2022-12-29T09:06:56;134.93;;;82.63;;
55465;SDS011;41329;41.594;23.810;2022-12-29T09:09:21;126.63;;;76.03;;
55465;SDS011;41329;41.594;23.810;2022-12-29T09:11:47;130.67;;;80.90;;
55465;SDS011;41329;41.594;23.810;2022-12-29T09:14:13;129.53;;;79.63;;
55465;SDS011;41329;41.594;23.810;2022-12-29T09:16:39;130.43;;;78.87;;
55465;SDS011;41329;41.594;23.810;2022-12-29T09:19:23;129.73;;;79.50;;
55465;SDS011;41329;41.594;23.810;2022-12-29T09:21:48;139.87;;;82.47;;
55465;SDS011;41329;41.594;23.810;2022-12-29T09:24:14;122.00;;;77.20;;
55465;SDS011;41329;41.594;23.810;2022-12-29T09:26:39;114.70;;;71.43;;
55465;SDS011;41329;41.594;23.810;2022-12-29T09:29:05;116.40;;;75.33;;
55465;SDS011;41329;41.594;23.810;2022-12-29T09:31:30;116.17;;;69.43;;
55465;SDS011;41329;41.594;23.810;2022-12-29T09:33:55;115.03;;;74.90;;
55465;SDS011;41329;41.594;23.810;2022-12-29T09:36:21;98.53;;;62.43;;
55465;SDS011;41329;41.594;23.810;2022-12-29T09:38:46;93.63;;;59.53;;
55465;SDS011;41329;41.594;23.810;2022-12-29T09:41:22;96.43;;;61.83;;
55465;SDS011;41329;41.594;23.810;2022-12-29T09:46:49;90.77;;;57.73;;
55465;SDS011;41329;41.594;23.810;2022-12-29T09:49:19;76.97;;;53.77;;
55465;SDS011;41329;41.594;23.810;2022-12-29T09:52:12;64.07;;;44.77;;
55465;SDS011;41329;41.594;23.810;2022-12-29T09:57:11;60.47;;;43.57;;
55465;SDS011;41329;41.594;23.810;2022-12-29T09:59:41;61.87;;;42.30;;
55465;SDS011;41329;41.594;23.810;2022-12-29T10:05:18;47.17;;;37.43;;
55465;SDS011;41329;41.594;23.810;2022-12-29T10:08:04;43.63;;;34.03;;
55465;SDS011;41329;41.594;23.810;2022-12-29T10:14:07;43.73;;;33.93;;
55465;SDS011;41329;41.594;23.810;2022-12-29T10:16:19;39.60;;;32.63;;
55465;SDS011;41329;41.594;23.810;2022-12-29T10:22:21;34.43;;;28.63;;
55465;SDS011;41329;41.594;23.810;2022-12-29T10:24:33;35.47;;;29.73;;
55465;SDS011;41329;41.594;23.810;2022-12-29T10:27:02;34.17;;;27.33;;
55465;SDS011;41329;41.594;23.810;2022-12-29T10:29:33;31.23;;;28.20;;
55465;SDS011;41329;41.594;23.810;2022-12-29T10:32:09;34.17;;;28.83;;
55465;SDS011;41329;41.594;23.810;2022-12-29T10:34:49;33.00;;;28.93;;
55465;SDS011;41329;41.594;23.810;2022-12-29T10:39:57;27.10;;;24.50;;
55465;SDS011;41329;41.594;23.810;2022-12-29T10:42:33;25.77;;;23.37;;
55465;SDS011;41329;41.594;23.810;2022-12-29T10:45:02;21.93;;;19.93;;
55465;SDS011;41329;41.594;23.810;2022-12-29T10:47:32;23.97;;;21.10;;
55465;SDS011;41329;41.594;23.810;2022-12-29T10:50:02;19.40;;;17.80;;
55465;SDS011;41329;41.594;23.810;2022-12-29T10:52:28;20.23;;;18.10;;
55465;SDS011;41329;41.594;23.810;2022-12-29T10:55:07;13.30;;;12.13;;
55465;SDS011;41329;41.594;23.810;2022-12-29T10:57:43;14.00;;;12.93;;
55465;SDS011;41329;41.594;23.810;2022-12-29T11:00:13;10.10;;;9.40;;
55465;SDS011;41329;41.594;23.810;2022-12-29T11:08:02;11.40;;;10.67;;
55465;SDS011;41329;41.594;23.810;2022-12-29T11:13:17;11.87;;;11.17;;
55465;SDS011;41329;41.594;23.810;2022-12-29T11:20:55;14.17;;;13.20;;
55465;SDS011;41329;41.594;23.810;2022-12-29T11:23:32;12.50;;;11.60;;
55465;SDS011;41329;41.594;23.810;2022-12-29T11:29:03;14.23;;;12.73;;
55465;SDS011;41329;41.594;23.810;2022-12-29T11:31:44;13.57;;;12.77;;
55465;SDS011;41329;41.594;23.810;2022-12-29T11:34:18;13.80;;;12.70;;
55465;SDS011;41329;41.594;23.810;2022-12-29T11:36:47;13.63;;;12.70;;
55465;SDS011;41329;41.594;23.810;2022-12-29T11:41:58;13.57;;;12.67;;
55465;SDS011;41329;41.594;23.810;2022-12-29T11:44:24;14.30;;;13.40;;
55465;SDS011;41329;41.594;23.810;2022-12-29T11:46:51;14.27;;;13.33;;
55465;SDS011;41329;41.594;23.810;2022-12-29T11:49:24;14.07;;;13.07;;
55465;SDS011;41329;41.594;23.810;2022-12-29T11:51:51;13.27;;;12.48;;
55465;SDS011;41329;41.594;23.810;2022-12-29T11:54:32;14.02;;;13.13;;
55465;SDS011;41329;41.594;23.810;2022-12-29T11:57:09;15.27;;;14.15;;
55465;SDS011;41329;41.594;23.810;2022-12-29T11:59:40;15.10;;;14.17;;
55465;SDS011;41329;41.594;23.810;2022-12-29T12:02:35;16.90;;;15.30;;
55465;SDS011;41329;41.594;23.810;2022-12-29T12:08:00;15.82;;;14.88;;
55465;SDS011;41329;41.594;23.810;2022-12-29T12:10:31;18.17;;;16.77;;
55465;SDS011;41329;41.594;23.810;2022-12-29T12:16:06;18.07;;;16.57;;
55465;SDS011;41329;41.594;23.810;2022-12-29T12:24:03;21.42;;;19.52;;
55465;SDS011;41329;41.594;23.810;2022-12-29T12:26:59;20.30;;;18.55;;
55465;SDS011;41329;41.594;23.810;2022-12-29T12:32:24;17.47;;;16.33;;
55465;SDS011;41329;41.594;23.810;2022-12-29T12:35:11;20.17;;;18.67;;
55465;SDS011;41329;41.594;23.810;2022-12-29T12:51:37;15.38;;;14.48;;
55465;SDS011;41329;41.594;23.810;2022-12-29T13:00:19;18.13;;;16.42;;
55465;SDS011;41329;41.594;23.810;2022-12-29T13:03:05;16.88;;;15.57;;
55465;SDS011;41329;41.594;23.810;2022-12-29T13:16:37;21.83;;;16.75;;
55465;SDS011;41329;41.594;23.810;2022-12-29T13:24:50;11.10;;;10.50;;
55465;SDS011;41329;41.594;23.810;2022-12-29T13:30:33;11.52;;;10.57;;
55465;SDS011;41329;41.594;23.810;2022-12-29T13:38:11;13.30;;;12.20;;
55465;SDS011;41329;41.594;23.810;2022-12-29T13:40:44;14.43;;;13.52;;
55465;SDS011;41329;41.594;23.810;2022-12-29T13:43:13;17.60;;;16.02;;
55465;SDS011;41329;41.594;23.810;2022-12-29T13:45:41;15.20;;;14.30;;
55465;SDS011;41329;41.594;23.810;2022-12-29T13:50:41;14.30;;;13.15;;
55465;SDS011;41329;41.594;23.810;2022-12-29T13:56:03;12.65;;;11.75;;
55465;SDS011;41329;41.594;23.810;2022-12-29T13:58:32;11.25;;;10.52;;
55465;SDS011;41329;41.594;23.810;2022-12-29T14:03:55;11.55;;;10.50;;
55465;SDS011;41329;41.594;23.810;2022-12-29T14:08:56;11.57;;;10.77;;
55465;SDS011;41329;41.594;23.810;2022-12-29T14:11:31;9.30;;;8.73;;
55465;SDS011;41329;41.594;23.810;2022-12-29T14:14:10;9.68;;;9.07;;
55465;SDS011;41329;41.594;23.810;2022-12-29T14:16:39;8.73;;;8.23;;
55465;SDS011;41329;41.594;23.810;2022-12-29T14:19:12;9.68;;;8.85;;
55465;SDS011;41329;41.594;23.810;2022-12-29T14:21:41;9.80;;;9.20;;
55465;SDS011;41329;41.594;23.810;2022-12-29T14:32:07;12.57;;;11.73;;
55465;SDS011;41329;41.594;23.810;2022-12-29T14:34:51;11.80;;;11.10;;
55465;SDS011;41329;41.594;23.810;2022-12-29T14:37:29;14.70;;;13.73;;
55465;SDS011;41329;41.594;23.810;2022-12-29T14:42:47;14.68;;;13.63;;
55465;SDS011;41329;41.594;23.810;2022-12-29T14:52:57;13.95;;;13.05;;
55465;SDS011;41329;41.594;23.810;2022-12-29T14:58:26;16.73;;;15.18;;
55465;SDS011;41329;41.594;23.810;2022-12-29T15:00:55;22.77;;;20.45;;
55465;SDS011;41329;41.594;23.810;2022-12-29T15:03:24;34.30;;;25.43;;
55465;SDS011;41329;41.594;23.810;2022-12-29T15:06:09;25.58;;;22.58;;
55465;SDS011;41329;41.594;23.810;2022-12-29T15:14:00;22.30;;;20.37;;
55465;SDS011;41329;41.594;23.810;2022-12-29T15:16:29;20.67;;;18.90;;
55465;SDS011;41329;41.594;23.810;2022-12-29T15:18:56;22.95;;;21.17;;
55465;SDS011;41329;41.594;23.810;2022-12-29T15:21:29;20.47;;;18.40;;
55465;SDS011;41329;41.594;23.810;2022-12-29T15:23:56;19.67;;;18.07;;
55465;SDS011;41329;41.594;23.810;2022-12-29T15:26:22;20.67;;;18.57;;
55465;SDS011;41329;41.594;23.810;2022-12-29T15:28:51;31.10;;;24.53;;
55465;SDS011;41329;41.594;23.810;2022-12-29T15:31:23;25.07;;;21.90;;
55465;SDS011;41329;41.594;23.810;2022-12-29T15:33:53;24.48;;;22.02;;
55465;SDS011;41329;41.594;23.810;2022-12-29T15:38:50;23.42;;;21.23;;
55465;SDS011;41329;41.594;23.810;2022-12-29T15:41:24;23.03;;;20.90;;
55465;SDS011;41329;41.594;23.810;2022-12-29T15:46:40;23.97;;;19.10;;
55465;SDS011;41329;41.594;23.810;2022-12-29T15:49:09;17.73;;;16.43;;
55465;SDS011;41329;41.594;23.810;2022-12-29T15:51:38;17.73;;;16.33;;
55465;SDS011;41329;41.594;23.810;2022-12-29T15:54:05;16.77;;;15.57;;
55465;SDS011;41329;41.594;23.810;2022-12-29T15:56:39;28.93;;;23.23;;
55465;SDS011;41329;41.594;23.810;2022-12-29T15:59:18;22.70;;;20.23;;
55465;SDS011;41329;41.594;23.810;2022-12-29T16:01:48;21.53;;;19.33;;
55465;SDS011;41329;41.594;23.810;2022-12-29T16:04:15;21.37;;;19.60;;
55465;SDS011;41329;41.594;23.810;2022-12-29T16:06:59;21.67;;;19.63;;
55465;SDS011;41329;41.594;23.810;2022-12-29T16:09:31;28.10;;;22.23;;
55465;SDS011;41329;41.594;23.810;2022-12-29T16:12:17;26.03;;;23.50;;
55465;SDS011;41329;41.594;23.810;2022-12-29T16:14:47;27.90;;;23.10;;
55465;SDS011;41329;41.594;23.810;2022-12-29T16:17:23;24.90;;;22.20;;
55465;SDS011;41329;41.594;23.810;2022-12-29T16:19:55;29.13;;;26.00;;
55465;SDS011;41329;41.594;23.810;2022-12-29T16:24:50;35.10;;;28.57;;
55465;SDS011;41329;41.594;23.810;2022-12-29T16:27:21;36.63;;;27.85;;
55465;SDS011;41329;41.594;23.810;2022-12-29T16:29:53;38.80;;;26.90;;
55465;SDS011;41329;41.594;23.810;2022-12-29T16:32:27;32.97;;;28.13;;
55465;SDS011;41329;41.594;23.810;2022-12-29T16:37:45;37.57;;;29.83;;
55465;SDS011;41329;41.594;23.810;2022-12-29T16:50:17;37.70;;;28.00;;
55465;SDS011;41329;41.594;23.810;2022-12-29T16:52:48;40.22;;;29.45;;
55465;SDS011;41329;41.594;23.810;2022-12-29T16:55:17;45.07;;;31.63;;
55465;SDS011;41329;41.594;23.810;2022-12-29T16:57:44;41.33;;;31.77;;
55465;SDS011;41329;41.594;23.810;2022-12-29T17:00:20;42.00;;;31.43;;
55465;SDS011;41329;41.594;23.810;2022-12-29T17:02:47;42.93;;;32.20;;
55465;SDS011;41329;41.594;23.810;2022-12-29T17:05:15;46.10;;;31.53;;
55465;SDS011;41329;41.594;23.810;2022-12-29T17:07:42;69.77;;;47.50;;
55465;SDS011;41329;41.594;23.810;2022-12-29T17:10:07;111.87;;;68.50;;
55465;SDS011;41329;41.594;23.810;2022-12-29T17:12:33;101.37;;;59.00;;
55465;SDS011;41329;41.594;23.810;2022-12-29T17:15:04;70.07;;;43.50;;
55465;SDS011;41329;41.594;23.810;2022-12-29T17:17:37;76.73;;;45.23;;
55465;SDS011;41329;41.594;23.810;2022-12-29T17:22:42;80.00;;;45.23;;
55465;SDS011;41329;41.594;23.810;2022-12-29T17:25:11;71.27;;;44.90;;
55465;SDS011;41329;41.594;23.810;2022-12-29T17:30:14;74.63;;;43.97;;
55465;SDS011;41329;41.594;23.810;2022-12-29T17:32:42;77.63;;;42.63;;
55465;SDS011;41329;41.594;23.810;2022-12-29T17:35:14;64.03;;;41.87;;
55465;SDS011;41329;41.594;23.810;2022-12-29T17:37:41;61.40;;;36.97;;